sensor_id;sensor_type;location;lat;lon;timestamp;P1;durP1;ratioP1;P2;durP2;ratioP2
70667;SDS011;58242;51.250;-1.118;2023-02-13T00:02:21;9.68;;;7.82;;
70667;SDS011;58242;51.250;-1.118;2023-02-13T00:04:46;8.70;;;6.65;;
70667;SDS011;58242;51.250;-1.118;2023-02-13T00:07:12;9.60;;;7.18;;
70667;SDS011;58242;51.250;-1.118;2023-02-13T00:09:37;8.45;;;6.95;;
70667;SDS011;58242;51.250;-1.118;2023-02-13T00:12:03;6.45;;;5.88;;
70667;SDS011;58242;51.250;-1.118;2023-02-13T00:14:30;6.68;;;6.05;;
70667;SDS011;58242;51.250;-1.118;2023-02-13T00:16:55;7.35;;;6.57;;
70667;SDS011;58242;51.250;-1.118;2023-02-13T00:19:20;6.53;;;5.70;;
70667;SDS011;58242;51.250;-1.118;2023-02-13T00:21:46;9.07;;;8.18;;
70667;SDS011;58242;51.250;-1.118;2023-02-13T00:24:11;10.73;;;9.05;;
70667;SDS011;58242;51.250;-1.118;2023-02-13T00:26:36;10.43;;;9.25;;
70667;SDS011;58242;51.250;-1.118;2023-02-13T00:29:03;8.65;;;7.75;;
70667;SDS011;58242;51.250;-1.118;2023-02-13T00:31:29;7.65;;;6.72;;
70667;SDS011;58242;51.250;-1.118;2023-02-13T00:33:54;7.93;;;7.13;;
70667;SDS011;58242;51.250;-1.118;2023-02-13T00:36:21;8.15;;;7.20;;
70667;SDS011;58242;51.250;-1.118;2023-02-13T00:38:46;10.48;;;9.20;;
70667;SDS011;58242;51.250;-1.118;2023-02-13T00:41:12;12.07;;;9.80;;
70667;SDS011;58242;51.250;-1.118;2023-02-13T00:43:40;9.50;;;7.88;;
70667;SDS011;58242;51.250;-1.118;2023-02-13T00:46:06;12.40;;;8.98;;
70667;SDS011;58242;51.250;-1.118;2023-02-13T00:48:32;9.60;;;8.35;;
70667;SDS011;58242;51.250;-1.118;2023-02-13T00:50:58;8.88;;;7.95;;
70667;SDS011;58242;51.250;-1.118;2023-02-13T00:53:24;8.52;;;7.57;;
70667;SDS011;58242;51.250;-1.118;2023-02-13T00:55:50;8.48;;;7.45;;
70667;SDS011;58242;51.250;-1.118;2023-02-13T00:58:15;9.07;;;7.88;;
70667;SDS011;58242;51.250;-1.118;2023-02-13T01:00:41;11.07;;;8.60;;
70667;SDS011;58242;51.250;-1.118;2023-02-13T01:03:07;9.25;;;7.20;;
70667;SDS011;58242;51.250;-1.118;2023-02-13T01:05:33;8.50;;;7.60;;
70667;SDS011;58242;51.250;-1.118;2023-02-13T01:07:58;10.15;;;8.63;;
70667;SDS011;58242;51.250;-1.118;2023-02-13T01:10:24;10.35;;;8.63;;
70667;SDS011;58242;51.250;-1.118;2023-02-13T01:12:50;12.18;;;10.15;;
70667;SDS011;58242;51.250;-1.118;2023-02-13T01:15:16;10.60;;;9.00;;
70667;SDS011;58242;51.250;-1.118;2023-02-13T01:17:41;12.15;;;10.57;;
70667;SDS011;58242;51.250;-1.118;2023-02-13T01:20:07;15.07;;;11.30;;
70667;SDS011;58242;51.250;-1.118;2023-02-13T01:22:34;14.98;;;11.40;;
70667;SDS011;58242;51.250;-1.118;2023-02-13T01:24:59;12.13;;;10.57;;
70667;SDS011;58242;51.250;-1.118;2023-02-13T01:27:26;11.52;;;10.32;;
70667;SDS011;58242;51.250;-1.118;2023-02-13T01:29:52;13.20;;;9.98;;
70667;SDS011;58242;51.250;-1.118;2023-02-13T01:32:17;11.00;;;9.48;;
70667;SDS011;58242;51.250;-1.118;2023-02-13T01:34:42;11.10;;;9.55;;
70667;SDS011;58242;51.250;-1.118;2023-02-13T01:37:07;15.15;;;11.90;;
70667;SDS011;58242;51.250;-1.118;2023-02-13T01:39:33;15.05;;;11.70;;
70667;SDS011;58242;51.250;-1.118;2023-02-13T01:41:58;17.23;;;12.95;;
70667;SDS011;58242;51.250;-1.118;2023-02-13T01:47:30;15.90;;;11.35;;
70667;SDS011;58242;51.250;-1.118;2023-02-13T01:52:37;14.02;;;11.93;;
70667;SDS011;58242;51.250;-1.118;2023-02-13T01:55:06;15.73;;;11.77;;
70667;SDS011;58242;51.250;-1.118;2023-02-13T01:57:33;10.85;;;9.35;;
70667;SDS011;58242;51.250;-1.118;2023-02-13T02:00:03;15.48;;;12.55;;
70667;SDS011;58242;51.250;-1.118;2023-02-13T02:02:32;14.82;;;11.20;;
70667;SDS011;58242;51.250;-1.118;2023-02-13T02:05:02;12.13;;;10.75;;
70667;SDS011;58242;51.250;-1.118;2023-02-13T02:07:29;11.60;;;9.32;;
70667;SDS011;58242;51.250;-1.118;2023-02-13T02:10:00;9.98;;;8.48;;
70667;SDS011;58242;51.250;-1.118;2023-02-13T02:12:36;10.98;;;9.05;;
70667;SDS011;58242;51.250;-1.118;2023-02-13T02:15:07;14.70;;;11.03;;
70667;SDS011;58242;51.250;-1.118;2023-02-13T02:17:33;12.18;;;9.80;;
70667;SDS011;58242;51.250;-1.118;2023-02-13T02:23:02;11.05;;;9.85;;
70667;SDS011;58242;51.250;-1.118;2023-02-13T02:40:34;15.80;;;11.65;;
70667;SDS011;58242;51.250;-1.118;2023-02-13T02:42:59;10.80;;;9.70;;
70667;SDS011;58242;51.250;-1.118;2023-02-13T02:45:55;14.68;;;11.38;;
70667;SDS011;58242;51.250;-1.118;2023-02-13T02:48:54;10.80;;;9.05;;
70667;SDS011;58242;51.250;-1.118;2023-02-13T02:57:22;12.10;;;9.63;;
70667;SDS011;58242;51.250;-1.118;2023-02-13T03:00:12;11.57;;;9.48;;
70667;SDS011;58242;51.250;-1.118;2023-02-13T03:02:57;11.60;;;8.25;;
70667;SDS011;58242;51.250;-1.118;2023-02-13T03:05:42;8.18;;;7.25;;
70667;SDS011;58242;51.250;-1.118;2023-02-13T03:08:27;8.68;;;7.40;;
70667;SDS011;58242;51.250;-1.118;2023-02-13T03:11:12;9.07;;;7.20;;
70667;SDS011;58242;51.250;-1.118;2023-02-13T03:13:56;7.85;;;7.03;;
70667;SDS011;58242;51.250;-1.118;2023-02-13T03:16:24;7.47;;;6.72;;
70667;SDS011;58242;51.250;-1.118;2023-02-13T03:22:30;7.55;;;6.85;;
70667;SDS011;58242;51.250;-1.118;2023-02-13T03:27:44;8.38;;;6.63;;
70667;SDS011;58242;51.250;-1.118;2023-02-13T03:33:42;8.13;;;7.25;;
70667;SDS011;58242;51.250;-1.118;2023-02-13T03:39:04;9.95;;;8.38;;
70667;SDS011;58242;51.250;-1.118;2023-02-13T03:44:33;12.18;;;9.50;;
70667;SDS011;58242;51.250;-1.118;2023-02-13T03:47:02;14.73;;;11.52;;
70667;SDS011;58242;51.250;-1.118;2023-02-13T03:49:32;11.13;;;8.23;;
70667;SDS011;58242;51.250;-1.118;2023-02-13T03:52:21;9.35;;;7.88;;
70667;SDS011;58242;51.250;-1.118;2023-02-13T03:54:55;9.57;;;8.13;;
70667;SDS011;58242;51.250;-1.118;2023-02-13T03:57:43;10.48;;;8.93;;
70667;SDS011;58242;51.250;-1.118;2023-02-13T04:00:30;9.93;;;8.45;;
70667;SDS011;58242;51.250;-1.118;2023-02-13T04:03:04;9.45;;;8.02;;
70667;SDS011;58242;51.250;-1.118;2023-02-13T04:05:46;8.75;;;7.45;;
70667;SDS011;58242;51.250;-1.118;2023-02-13T04:08:14;7.07;;;6.38;;
70667;SDS011;58242;51.250;-1.118;2023-02-13T04:10:45;8.38;;;7.55;;
70667;SDS011;58242;51.250;-1.118;2023-02-13T04:13:17;10.27;;;8.32;;
70667;SDS011;58242;51.250;-1.118;2023-02-13T04:16:00;7.65;;;6.85;;
70667;SDS011;58242;51.250;-1.118;2023-02-13T04:18:30;10.32;;;8.57;;
70667;SDS011;58242;51.250;-1.118;2023-02-13T04:21:00;8.93;;;7.60;;
70667;SDS011;58242;51.250;-1.118;2023-02-13T04:23:27;9.90;;;7.95;;
70667;SDS011;58242;51.250;-1.118;2023-02-13T04:25:53;9.73;;;8.20;;
70667;SDS011;58242;51.250;-1.118;2023-02-13T04:28:20;11.15;;;9.13;;
70667;SDS011;58242;51.250;-1.118;2023-02-13T04:30:46;13.45;;;9.88;;
70667;SDS011;58242;51.250;-1.118;2023-02-13T04:33:11;10.95;;;9.10;;
70667;SDS011;58242;51.250;-1.118;2023-02-13T04:35:37;11.02;;;8.90;;
70667;SDS011;58242;51.250;-1.118;2023-02-13T04:38:02;12.82;;;10.25;;
70667;SDS011;58242;51.250;-1.118;2023-02-13T04:40:28;13.30;;;9.93;;
70667;SDS011;58242;51.250;-1.118;2023-02-13T04:42:53;9.35;;;8.35;;
70667;SDS011;58242;51.250;-1.118;2023-02-13T04:45:19;11.02;;;9.68;;
70667;SDS011;58242;51.250;-1.118;2023-02-13T04:47:51;13.68;;;10.85;;
70667;SDS011;58242;51.250;-1.118;2023-02-13T04:50:17;11.98;;;10.60;;
70667;SDS011;58242;51.250;-1.118;2023-02-13T04:52:43;12.65;;;9.90;;
70667;SDS011;58242;51.250;-1.118;2023-02-13T04:55:09;9.98;;;8.88;;
70667;SDS011;58242;51.250;-1.118;2023-02-13T04:57:34;13.25;;;10.55;;
70667;SDS011;58242;51.250;-1.118;2023-02-13T04:59:59;13.85;;;10.30;;
70667;SDS011;58242;51.250;-1.118;2023-02-13T05:02:25;13.18;;;10.20;;
70667;SDS011;58242;51.250;-1.118;2023-02-13T05:04:50;11.82;;;9.73;;
70667;SDS011;58242;51.250;-1.118;2023-02-13T05:07:15;9.75;;;8.75;;
70667;SDS011;58242;51.250;-1.118;2023-02-13T05:09:41;11.73;;;9.35;;
70667;SDS011;58242;51.250;-1.118;2023-02-13T05:12:06;11.65;;;10.15;;
70667;SDS011;58242;51.250;-1.118;2023-02-13T05:14:31;14.48;;;11.75;;
70667;SDS011;58242;51.250;-1.118;2023-02-13T05:16:57;12.90;;;10.57;;
70667;SDS011;58242;51.250;-1.118;2023-02-13T05:19:22;15.18;;;10.85;;
70667;SDS011;58242;51.250;-1.118;2023-02-13T05:21:47;11.55;;;9.45;;
70667;SDS011;58242;51.250;-1.118;2023-02-13T05:24:31;12.73;;;9.35;;
70667;SDS011;58242;51.250;-1.118;2023-02-13T05:26:56;9.68;;;8.35;;
70667;SDS011;58242;51.250;-1.118;2023-02-13T05:29:22;10.13;;;8.32;;
70667;SDS011;58242;51.250;-1.118;2023-02-13T05:31:48;9.55;;;8.55;;
70667;SDS011;58242;51.250;-1.118;2023-02-13T05:34:15;8.85;;;7.93;;
70667;SDS011;58242;51.250;-1.118;2023-02-13T05:36:41;8.60;;;7.57;;
70667;SDS011;58242;51.250;-1.118;2023-02-13T05:39:06;8.82;;;7.90;;
70667;SDS011;58242;51.250;-1.118;2023-02-13T05:41:32;11.50;;;10.18;;
70667;SDS011;58242;51.250;-1.118;2023-02-13T05:43:57;9.73;;;8.73;;
70667;SDS011;58242;51.250;-1.118;2023-02-13T05:46:22;8.95;;;8.05;;
70667;SDS011;58242;51.250;-1.118;2023-02-13T05:48:48;10.48;;;9.43;;
70667;SDS011;58242;51.250;-1.118;2023-02-13T05:51:13;10.45;;;8.88;;
70667;SDS011;58242;51.250;-1.118;2023-02-13T05:53:38;10.45;;;9.05;;
70667;SDS011;58242;51.250;-1.118;2023-02-13T05:56:04;10.30;;;9.10;;
70667;SDS011;58242;51.250;-1.118;2023-02-13T05:58:30;14.02;;;11.10;;
70667;SDS011;58242;51.250;-1.118;2023-02-13T06:00:56;10.95;;;9.38;;
70667;SDS011;58242;51.250;-1.118;2023-02-13T06:03:23;11.05;;;9.27;;
70667;SDS011;58242;51.250;-1.118;2023-02-13T06:05:49;10.48;;;8.05;;
70667;SDS011;58242;51.250;-1.118;2023-02-13T06:08:15;12.48;;;9.20;;
70667;SDS011;58242;51.250;-1.118;2023-02-13T06:10:40;9.68;;;8.20;;
70667;SDS011;58242;51.250;-1.118;2023-02-13T06:13:05;13.95;;;10.98;;
70667;SDS011;58242;51.250;-1.118;2023-02-13T06:15:30;10.95;;;9.68;;
70667;SDS011;58242;51.250;-1.118;2023-02-13T06:17:56;14.18;;;10.80;;
70667;SDS011;58242;51.250;-1.118;2023-02-13T06:20:21;12.85;;;9.65;;
70667;SDS011;58242;51.250;-1.118;2023-02-13T06:22:50;13.82;;;9.32;;
70667;SDS011;58242;51.250;-1.118;2023-02-13T06:25:16;17.80;;;13.82;;
70667;SDS011;58242;51.250;-1.118;2023-02-13T06:27:41;16.58;;;12.65;;
70667;SDS011;58242;51.250;-1.118;2023-02-13T06:30:06;12.10;;;9.93;;
70667;SDS011;58242;51.250;-1.118;2023-02-13T06:32:32;13.05;;;10.10;;
70667;SDS011;58242;51.250;-1.118;2023-02-13T06:34:57;11.80;;;9.15;;
70667;SDS011;58242;51.250;-1.118;2023-02-13T06:37:23;12.85;;;10.63;;
70667;SDS011;58242;51.250;-1.118;2023-02-13T06:39:48;11.40;;;9.30;;
70667;SDS011;58242;51.250;-1.118;2023-02-13T06:42:13;13.77;;;9.63;;
70667;SDS011;58242;51.250;-1.118;2023-02-13T06:44:39;9.35;;;8.45;;
70667;SDS011;58242;51.250;-1.118;2023-02-13T06:47:04;9.45;;;8.18;;
70667;SDS011;58242;51.250;-1.118;2023-02-13T06:49:29;11.50;;;9.70;;
70667;SDS011;58242;51.250;-1.118;2023-02-13T06:51:55;10.13;;;8.68;;
70667;SDS011;58242;51.250;-1.118;2023-02-13T06:54:20;10.45;;;9.30;;
70667;SDS011;58242;51.250;-1.118;2023-02-13T06:56:45;12.65;;;10.38;;
70667;SDS011;58242;51.250;-1.118;2023-02-13T06:59:10;11.93;;;9.68;;
70667;SDS011;58242;51.250;-1.118;2023-02-13T07:01:36;15.15;;;11.95;;
70667;SDS011;58242;51.250;-1.118;2023-02-13T07:04:01;15.07;;;11.77;;
70667;SDS011;58242;51.250;-1.118;2023-02-13T07:06:26;10.95;;;9.73;;
70667;SDS011;58242;51.250;-1.118;2023-02-13T07:08:52;10.50;;;8.63;;
70667;SDS011;58242;51.250;-1.118;2023-02-13T07:11:20;10.65;;;8.98;;
70667;SDS011;58242;51.250;-1.118;2023-02-13T07:13:47;10.48;;;8.57;;
70667;SDS011;58242;51.250;-1.118;2023-02-13T07:16:13;10.10;;;9.10;;
70667;SDS011;58242;51.250;-1.118;2023-02-13T07:18:39;12.18;;;9.93;;
70667;SDS011;58242;51.250;-1.118;2023-02-13T07:21:04;14.15;;;10.88;;
70667;SDS011;58242;51.250;-1.118;2023-02-13T07:23:29;11.75;;;9.73;;
70667;SDS011;58242;51.250;-1.118;2023-02-13T07:25:57;13.18;;;10.60;;
70667;SDS011;58242;51.250;-1.118;2023-02-13T07:28:24;14.40;;;11.43;;
70667;SDS011;58242;51.250;-1.118;2023-02-13T07:30:49;11.35;;;9.38;;
70667;SDS011;58242;51.250;-1.118;2023-02-13T07:33:15;11.05;;;9.50;;
70667;SDS011;58242;51.250;-1.118;2023-02-13T07:35:45;8.85;;;7.95;;
70667;SDS011;58242;51.250;-1.118;2023-02-13T07:38:11;11.82;;;9.70;;
70667;SDS011;58242;51.250;-1.118;2023-02-13T07:40:36;13.43;;;10.73;;
70667;SDS011;58242;51.250;-1.118;2023-02-13T07:43:02;19.73;;;12.38;;
70667;SDS011;58242;51.250;-1.118;2023-02-13T07:45:27;16.27;;;12.75;;
70667;SDS011;58242;51.250;-1.118;2023-02-13T07:47:55;15.07;;;11.60;;
70667;SDS011;58242;51.250;-1.118;2023-02-13T07:50:21;12.20;;;10.27;;
70667;SDS011;58242;51.250;-1.118;2023-02-13T07:52:56;18.58;;;13.70;;
70667;SDS011;58242;51.250;-1.118;2023-02-13T07:55:23;18.35;;;13.25;;
70667;SDS011;58242;51.250;-1.118;2023-02-13T07:57:49;18.85;;;13.68;;
70667;SDS011;58242;51.250;-1.118;2023-02-13T08:00:15;16.85;;;12.27;;
70667;SDS011;58242;51.250;-1.118;2023-02-13T08:02:40;15.32;;;12.43;;
70667;SDS011;58242;51.250;-1.118;2023-02-13T08:05:06;17.98;;;13.75;;
70667;SDS011;58242;51.250;-1.118;2023-02-13T08:07:32;15.65;;;11.60;;
70667;SDS011;58242;51.250;-1.118;2023-02-13T08:09:58;12.98;;;10.43;;
70667;SDS011;58242;51.250;-1.118;2023-02-13T08:12:42;10.52;;;9.07;;
70667;SDS011;58242;51.250;-1.118;2023-02-13T08:15:09;15.35;;;11.27;;
70667;SDS011;58242;51.250;-1.118;2023-02-13T08:17:36;14.85;;;11.18;;
70667;SDS011;58242;51.250;-1.118;2023-02-13T08:20:01;12.68;;;10.00;;
70667;SDS011;58242;51.250;-1.118;2023-02-13T08:22:26;16.23;;;13.15;;
70667;SDS011;58242;51.250;-1.118;2023-02-13T08:24:52;16.38;;;11.85;;
70667;SDS011;58242;51.250;-1.118;2023-02-13T08:27:18;16.85;;;11.43;;
70667;SDS011;58242;51.250;-1.118;2023-02-13T08:29:43;21.42;;;14.65;;
70667;SDS011;58242;51.250;-1.118;2023-02-13T08:32:09;15.32;;;11.35;;
70667;SDS011;58242;51.250;-1.118;2023-02-13T08:34:34;11.68;;;9.30;;
70667;SDS011;58242;51.250;-1.118;2023-02-13T08:37:00;14.65;;;11.20;;
70667;SDS011;58242;51.250;-1.118;2023-02-13T08:39:26;15.93;;;11.70;;
70667;SDS011;58242;51.250;-1.118;2023-02-13T08:41:51;15.68;;;11.90;;
70667;SDS011;58242;51.250;-1.118;2023-02-13T08:44:17;17.40;;;13.77;;
70667;SDS011;58242;51.250;-1.118;2023-02-13T08:46:42;20.27;;;14.18;;
70667;SDS011;58242;51.250;-1.118;2023-02-13T08:49:07;13.68;;;10.68;;
70667;SDS011;58242;51.250;-1.118;2023-02-13T08:51:33;16.02;;;11.50;;
70667;SDS011;58242;51.250;-1.118;2023-02-13T08:53:58;17.83;;;12.85;;
70667;SDS011;58242;51.250;-1.118;2023-02-13T08:56:23;14.07;;;11.35;;
70667;SDS011;58242;51.250;-1.118;2023-02-13T08:58:49;12.85;;;10.45;;
70667;SDS011;58242;51.250;-1.118;2023-02-13T09:01:14;12.43;;;9.43;;
70667;SDS011;58242;51.250;-1.118;2023-02-13T09:03:40;13.25;;;9.85;;
70667;SDS011;58242;51.250;-1.118;2023-02-13T09:06:06;13.80;;;9.95;;
70667;SDS011;58242;51.250;-1.118;2023-02-13T09:08:33;11.20;;;8.75;;
70667;SDS011;58242;51.250;-1.118;2023-02-13T09:11:00;12.88;;;8.80;;
70667;SDS011;58242;51.250;-1.118;2023-02-13T09:13:28;10.70;;;7.65;;
70667;SDS011;58242;51.250;-1.118;2023-02-13T09:15:57;9.90;;;7.68;;
70667;SDS011;58242;51.250;-1.118;2023-02-13T09:18:24;9.25;;;7.80;;
70667;SDS011;58242;51.250;-1.118;2023-02-13T09:20:49;11.20;;;8.85;;
70667;SDS011;58242;51.250;-1.118;2023-02-13T09:23:15;11.60;;;9.27;;
70667;SDS011;58242;51.250;-1.118;2023-02-13T09:25:40;14.32;;;10.75;;
70667;SDS011;58242;51.250;-1.118;2023-02-13T09:28:05;15.52;;;10.68;;
70667;SDS011;58242;51.250;-1.118;2023-02-13T09:30:31;13.25;;;10.05;;
70667;SDS011;58242;51.250;-1.118;2023-02-13T09:32:56;12.43;;;9.80;;
70667;SDS011;58242;51.250;-1.118;2023-02-13T09:35:21;9.68;;;7.80;;
70667;SDS011;58242;51.250;-1.118;2023-02-13T09:37:47;11.23;;;8.20;;
70667;SDS011;58242;51.250;-1.118;2023-02-13T09:40:17;10.10;;;8.20;;
70667;SDS011;58242;51.250;-1.118;2023-02-13T09:42:46;15.73;;;11.25;;
70667;SDS011;58242;51.250;-1.118;2023-02-13T09:45:13;13.52;;;9.95;;
70667;SDS011;58242;51.250;-1.118;2023-02-13T09:47:42;12.02;;;8.90;;
70667;SDS011;58242;51.250;-1.118;2023-02-13T09:52:49;10.85;;;8.07;;
70667;SDS011;58242;51.250;-1.118;2023-02-13T09:55:24;8.85;;;7.50;;
70667;SDS011;58242;51.250;-1.118;2023-02-13T09:58:05;12.68;;;8.80;;
70667;SDS011;58242;51.250;-1.118;2023-02-13T10:00:49;14.77;;;9.70;;
70667;SDS011;58242;51.250;-1.118;2023-02-13T10:03:33;10.68;;;9.57;;
70667;SDS011;58242;51.250;-1.118;2023-02-13T10:06:15;16.52;;;12.15;;
70667;SDS011;58242;51.250;-1.118;2023-02-13T10:08:50;12.48;;;9.68;;
70667;SDS011;58242;51.250;-1.118;2023-02-13T10:14:17;11.80;;;8.65;;
70667;SDS011;58242;51.250;-1.118;2023-02-13T10:16:50;11.70;;;9.27;;
70667;SDS011;58242;51.250;-1.118;2023-02-13T10:19:36;13.57;;;10.60;;
70667;SDS011;58242;51.250;-1.118;2023-02-13T10:22:11;14.02;;;10.30;;
70667;SDS011;58242;51.250;-1.118;2023-02-13T10:27:43;14.50;;;10.05;;
70667;SDS011;58242;51.250;-1.118;2023-02-13T10:31:13;14.15;;;11.27;;
70667;SDS011;58242;51.250;-1.118;2023-02-13T10:33:22;14.38;;;10.88;;
70667;SDS011;58242;51.250;-1.118;2023-02-13T10:39:17;14.85;;;10.75;;
70667;SDS011;58242;51.250;-1.118;2023-02-13T11:01:05;12.77;;;10.40;;
70667;SDS011;58242;51.250;-1.118;2023-02-13T11:03:37;16.35;;;12.40;;
70667;SDS011;58242;51.250;-1.118;2023-02-13T11:06:04;13.93;;;10.63;;
70667;SDS011;58242;51.250;-1.118;2023-02-13T11:08:38;12.60;;;10.55;;
70667;SDS011;58242;51.250;-1.118;2023-02-13T11:16:40;12.40;;;10.23;;
70667;SDS011;58242;51.250;-1.118;2023-02-13T11:19:17;11.95;;;10.45;;
70667;SDS011;58242;51.250;-1.118;2023-02-13T11:21:46;12.75;;;9.13;;
70667;SDS011;58242;51.250;-1.118;2023-02-13T11:24:21;13.77;;;10.23;;
70667;SDS011;58242;51.250;-1.118;2023-02-13T11:26:49;12.45;;;9.63;;
70667;SDS011;58242;51.250;-1.118;2023-02-13T11:29:22;14.13;;;10.15;;
70667;SDS011;58242;51.250;-1.118;2023-02-13T11:34:39;13.10;;;10.77;;
70667;SDS011;58242;51.250;-1.118;2023-02-13T11:37:18;11.93;;;10.43;;
70667;SDS011;58242;51.250;-1.118;2023-02-13T11:39:45;11.77;;;10.27;;
70667;SDS011;58242;51.250;-1.118;2023-02-13T11:42:16;15.02;;;12.20;;
70667;SDS011;58242;51.250;-1.118;2023-02-13T11:44:48;12.02;;;10.75;;
70667;SDS011;58242;51.250;-1.118;2023-02-13T11:47:16;11.00;;;9.85;;
70667;SDS011;58242;51.250;-1.118;2023-02-13T11:49:55;12.68;;;10.57;;
70667;SDS011;58242;51.250;-1.118;2023-02-13T11:52:41;12.25;;;10.25;;
70667;SDS011;58242;51.250;-1.118;2023-02-13T12:00:39;12.73;;;11.23;;
70667;SDS011;58242;51.250;-1.118;2023-02-13T12:05:54;12.38;;;11.07;;
70667;SDS011;58242;51.250;-1.118;2023-02-13T12:08:25;12.93;;;10.35;;
70667;SDS011;58242;51.250;-1.118;2023-02-13T12:10:50;16.13;;;13.05;;
70667;SDS011;58242;51.250;-1.118;2023-02-13T12:13:21;15.32;;;13.20;;
70667;SDS011;58242;51.250;-1.118;2023-02-13T12:18:55;11.30;;;9.93;;
70667;SDS011;58242;51.250;-1.118;2023-02-13T12:32:58;12.13;;;10.07;;
70667;SDS011;58242;51.250;-1.118;2023-02-13T12:38:54;10.35;;;9.35;;
70667;SDS011;58242;51.250;-1.118;2023-02-13T12:41:48;8.88;;;8.07;;
70667;SDS011;58242;51.250;-1.118;2023-02-13T12:49:54;12.93;;;10.40;;
70667;SDS011;58242;51.250;-1.118;2023-02-13T12:52:46;12.07;;;10.82;;
70667;SDS011;58242;51.250;-1.118;2023-02-13T12:55:28;10.57;;;9.48;;
70667;SDS011;58242;51.250;-1.118;2023-02-13T12:58:25;11.88;;;10.32;;
70667;SDS011;58242;51.250;-1.118;2023-02-13T13:03:33;10.73;;;9.63;;
70667;SDS011;58242;51.250;-1.118;2023-02-13T13:24:56;9.63;;;8.65;;
70667;SDS011;58242;51.250;-1.118;2023-02-13T13:27:47;9.45;;;8.55;;
70667;SDS011;58242;51.250;-1.118;2023-02-13T13:30:27;9.90;;;8.90;;
70667;SDS011;58242;51.250;-1.118;2023-02-13T13:32:56;11.55;;;8.70;;
70667;SDS011;58242;51.250;-1.118;2023-02-13T13:35:28;9.88;;;8.55;;
70667;SDS011;58242;51.250;-1.118;2023-02-13T13:40:42;9.32;;;8.32;;
70667;SDS011;58242;51.250;-1.118;2023-02-13T13:43:31;8.98;;;8.07;;
70667;SDS011;58242;51.250;-1.118;2023-02-13T13:46:16;11.10;;;9.70;;
70667;SDS011;58242;51.250;-1.118;2023-02-13T13:51:29;9.45;;;8.65;;
70667;SDS011;58242;51.250;-1.118;2023-02-13T14:07:44;8.45;;;7.68;;
70667;SDS011;58242;51.250;-1.118;2023-02-13T14:12:49;6.45;;;5.95;;
70667;SDS011;58242;51.250;-1.118;2023-02-13T14:17:58;7.43;;;6.72;;
70667;SDS011;58242;51.250;-1.118;2023-02-13T14:28:34;6.72;;;6.22;;
70667;SDS011;58242;51.250;-1.118;2023-02-13T14:31:04;6.05;;;5.55;;
70667;SDS011;58242;51.250;-1.118;2023-02-13T14:33:33;6.57;;;5.97;;
70667;SDS011;58242;51.250;-1.118;2023-02-13T14:36:15;6.75;;;6.20;;
70667;SDS011;58242;51.250;-1.118;2023-02-13T14:38:53;6.95;;;6.35;;
70667;SDS011;58242;51.250;-1.118;2023-02-13T14:41:39;6.97;;;6.38;;
70667;SDS011;58242;51.250;-1.118;2023-02-13T14:44:51;6.53;;;5.93;;
70667;SDS011;58242;51.250;-1.118;2023-02-13T14:47:00;5.30;;;4.90;;
70667;SDS011;58242;51.250;-1.118;2023-02-13T14:49:29;5.90;;;5.40;;
70667;SDS011;58242;51.250;-1.118;2023-02-13T14:52:02;6.13;;;5.63;;
70667;SDS011;58242;51.250;-1.118;2023-02-13T14:57:05;6.20;;;5.75;;
70667;SDS011;58242;51.250;-1.118;2023-02-13T14:59:35;5.55;;;5.13;;
70667;SDS011;58242;51.250;-1.118;2023-02-13T15:04:48;5.60;;;5.20;;
70667;SDS011;58242;51.250;-1.118;2023-02-13T15:07:20;6.00;;;5.47;;
70667;SDS011;58242;51.250;-1.118;2023-02-13T15:09:52;6.00;;;5.50;;
70667;SDS011;58242;51.250;-1.118;2023-02-13T15:14:56;6.00;;;5.50;;
70667;SDS011;58242;51.250;-1.118;2023-02-13T15:17:25;5.45;;;4.95;;
70667;SDS011;58242;51.250;-1.118;2023-02-13T15:19:54;5.78;;;5.22;;
70667;SDS011;58242;51.250;-1.118;2023-02-13T15:24:55;6.10;;;5.50;;
70667;SDS011;58242;51.250;-1.118;2023-02-13T15:27:27;5.43;;;5.03;;
70667;SDS011;58242;51.250;-1.118;2023-02-13T15:30:17;5.03;;;4.63;;
70667;SDS011;58242;51.250;-1.118;2023-02-13T15:32:43;4.95;;;4.55;;
70667;SDS011;58242;51.250;-1.118;2023-02-13T15:35:16;6.35;;;5.75;;
70667;SDS011;58242;51.250;-1.118;2023-02-13T15:37:46;6.18;;;4.68;;
70667;SDS011;58242;51.250;-1.118;2023-02-13T15:40:13;4.97;;;4.55;;
70667;SDS011;58242;51.250;-1.118;2023-02-13T15:42:49;6.10;;;5.50;;
70667;SDS011;58242;51.250;-1.118;2023-02-13T15:45:16;5.00;;;4.60;;
70667;SDS011;58242;51.250;-1.118;2023-02-13T15:47:42;5.15;;;4.75;;
70667;SDS011;58242;51.250;-1.118;2023-02-13T15:50:13;4.53;;;4.22;;
70667;SDS011;58242;51.250;-1.118;2023-02-13T15:53:03;4.65;;;4.25;;
70667;SDS011;58242;51.250;-1.118;2023-02-13T15:55:33;4.80;;;4.40;;
70667;SDS011;58242;51.250;-1.118;2023-02-13T15:58:01;4.50;;;4.10;;
70667;SDS011;58242;51.250;-1.118;2023-02-13T16:00:31;4.60;;;4.30;;
70667;SDS011;58242;51.250;-1.118;2023-02-13T16:02:59;5.18;;;4.78;;
70667;SDS011;58242;51.250;-1.118;2023-02-13T16:05:28;5.18;;;4.68;;
70667;SDS011;58242;51.250;-1.118;2023-02-13T16:07:57;5.10;;;4.60;;
70667;SDS011;58242;51.250;-1.118;2023-02-13T16:12:57;5.95;;;5.35;;
70667;SDS011;58242;51.250;-1.118;2023-02-13T16:15:26;5.78;;;5.30;;
70667;SDS011;58242;51.250;-1.118;2023-02-13T16:17:54;6.15;;;5.55;;
70667;SDS011;58242;51.250;-1.118;2023-02-13T16:20:21;6.10;;;5.60;;
70667;SDS011;58242;51.250;-1.118;2023-02-13T16:23:00;7.95;;;6.35;;
70667;SDS011;58242;51.250;-1.118;2023-02-13T16:25:34;7.25;;;6.47;;
70667;SDS011;58242;51.250;-1.118;2023-02-13T16:28:03;6.15;;;5.65;;
70667;SDS011;58242;51.250;-1.118;2023-02-13T16:30:41;7.77;;;6.70;;
70667;SDS011;58242;51.250;-1.118;2023-02-13T16:38:25;5.65;;;5.15;;
70667;SDS011;58242;51.250;-1.118;2023-02-13T16:40:58;4.68;;;4.28;;
70667;SDS011;58242;51.250;-1.118;2023-02-13T16:43:31;4.73;;;4.33;;
70667;SDS011;58242;51.250;-1.118;2023-02-13T16:48:39;4.93;;;4.38;;
70667;SDS011;58242;51.250;-1.118;2023-02-13T16:51:12;5.53;;;4.45;;
70667;SDS011;58242;51.250;-1.118;2023-02-13T16:53:38;5.63;;;5.13;;
70667;SDS011;58242;51.250;-1.118;2023-02-13T16:56:05;5.20;;;4.70;;
70667;SDS011;58242;51.250;-1.118;2023-02-13T16:58:32;5.82;;;5.32;;
70667;SDS011;58242;51.250;-1.118;2023-02-13T17:00:58;5.07;;;4.68;;
70667;SDS011;58242;51.250;-1.118;2023-02-13T17:03:25;5.97;;;5.38;;
70667;SDS011;58242;51.250;-1.118;2023-02-13T17:05:51;5.28;;;4.88;;
70667;SDS011;58242;51.250;-1.118;2023-02-13T17:08:16;6.22;;;5.68;;
70667;SDS011;58242;51.250;-1.118;2023-02-13T17:10:42;5.70;;;5.15;;
70667;SDS011;58242;51.250;-1.118;2023-02-13T17:13:26;5.55;;;5.05;;
70667;SDS011;58242;51.250;-1.118;2023-02-13T17:15:52;5.05;;;4.63;;
70667;SDS011;58242;51.250;-1.118;2023-02-13T17:18:19;4.53;;;4.13;;
70667;SDS011;58242;51.250;-1.118;2023-02-13T17:20:44;5.25;;;4.75;;
70667;SDS011;58242;51.250;-1.118;2023-02-13T17:23:13;5.47;;;5.07;;
70667;SDS011;58242;51.250;-1.118;2023-02-13T17:25:41;5.97;;;5.38;;
70667;SDS011;58242;51.250;-1.118;2023-02-13T17:28:14;5.03;;;4.63;;
70667;SDS011;58242;51.250;-1.118;2023-02-13T17:30:45;5.97;;;5.47;;
70667;SDS011;58242;51.250;-1.118;2023-02-13T17:33:21;6.35;;;5.75;;
70667;SDS011;58242;51.250;-1.118;2023-02-13T17:35:49;6.25;;;5.75;;
70667;SDS011;58242;51.250;-1.118;2023-02-13T17:38:14;5.47;;;4.95;;
70667;SDS011;58242;51.250;-1.118;2023-02-13T17:40:41;5.35;;;4.88;;
70667;SDS011;58242;51.250;-1.118;2023-02-13T17:43:08;5.75;;;5.25;;
70667;SDS011;58242;51.250;-1.118;2023-02-13T17:45:35;6.88;;;6.18;;
70667;SDS011;58242;51.250;-1.118;2023-02-13T17:48:00;4.93;;;4.55;;
70667;SDS011;58242;51.250;-1.118;2023-02-13T17:50:27;5.13;;;4.60;;